Time;durP1;ratioP1;P1;durP2;ratioP2;P2;SDS_P1;SDS_P2;PMS_P1;PMS_P2;Temp;Humidity;BMP_temperature;BMP_pressure;BME280_temperature;BME280_humidity;BME280_pressure;Samples;Min_cycle;Max_cycle;Signal;HPM_P1;HPM_P2
2021/01/17 00:00:29;;;;;;;21.95;11.18;;;;;;;-4.74;78.58;97658.61;1795518;80;21161;-74
2021/01/17 00:02:56;;;;;;;30.70;11.08;;;;;;;-4.74;78.67;97651.49;1795608;80;21109;-75
2021/01/17 00:05:24;;;;;;;25.65;11.80;;;;;;;-4.71;78.63;97656.89;1795558;80;22135;-74
2021/01/17 00:07:50;;;;;;;14.28;7.05;;;;;;;-4.69;78.58;97653.58;1766010;80;21424;-74
2021/01/17 00:10:26;;;;;;;40.98;17.25;;;;;;;-4.64;78.35;97651.16;1789739;79;21154;-74
2021/01/17 00:12:53;;;;;;;31.55;14.63;;;;;;;-4.72;78.54;97648.66;1789352;80;21055;-74
2021/01/17 00:15:19;;;;;;;38.33;16.00;;;;;;;-4.70;78.56;97647.95;1789677;80;21479;-74
2021/01/17 00:17:46;;;;;;;30.32;13.85;;;;;;;-4.70;78.65;97647.47;1789590;79;21265;-74
2021/01/17 00:20:17;;;;;;;23.98;11.20;;;;;;;-4.70;78.36;97642.19;1789597;80;21519;-74
2021/01/17 00:22:43;;;;;;;26.52;11.90;;;;;;;-4.71;78.24;97637.87;1789559;79;21098;-74
2021/01/17 00:25:17;;;;;;;32.20;15.15;;;;;;;-4.72;78.35;97637.56;1789681;80;21523;-74
2021/01/17 00:27:45;;;;;;;24.57;11.80;;;;;;;-4.70;78.35;97634.73;1789630;80;21059;-74
2021/01/17 00:30:12;;;;;;;23.87;9.88;;;;;;;-4.69;78.19;97639.03;1789622;80;21256;-74
2021/01/17 00:32:40;;;;;;;34.70;15.13;;;;;;;-4.67;78.07;97633.04;1789573;80;21198;-74
2021/01/17 00:35:08;;;;;;;45.50;16.13;;;;;;;-4.68;78.11;97639.34;1789785;80;21114;-74
2021/01/17 00:37:34;;;;;;;29.10;11.40;;;;;;;-4.65;78.19;97631.83;1789924;79;21111;-74
2021/01/17 00:40:01;;;;;;;26.75;12.23;;;;;;;-4.65;78.02;97618.61;1763457;80;21106;-74
2021/01/17 00:42:28;;;;;;;22.25;11.22;;;;;;;-4.62;78.07;97626.66;1789570;80;21262;-74
2021/01/17 00:44:54;;;;;;;36.93;14.80;;;;;;;-4.58;78.06;97626.59;1789698;80;21575;-74
2021/01/17 00:47:21;;;;;;;22.60;8.60;;;;;;;-4.56;77.95;97624.56;1789588;80;21030;-74
2021/01/17 00:49:47;;;;;;;25.20;10.68;;;;;;;-4.52;77.83;97633.77;1789685;80;21126;-74
2021/01/17 00:52:18;;;;;;;24.32;12.45;;;;;;;-4.54;77.84;97624.68;1789607;80;21335;-74
2021/01/17 00:54:45;;;;;;;14.43;6.75;;;;;;;-4.53;77.64;97620.20;1789618;80;21195;-74
2021/01/17 00:57:11;;;;;;;33.48;15.60;;;;;;;-4.53;77.82;97617.56;1789526;79;21110;-75
2021/01/17 00:59:37;;;;;;;24.82;10.98;;;;;;;-4.60;77.95;97618.05;1789565;80;21173;-74
2021/01/17 01:02:04;;;;;;;26.23;12.20;;;;;;;-4.61;78.21;97624.34;1789556;80;21158;-74
2021/01/17 01:04:30;;;;;;;21.37;11.85;;;;;;;-4.62;78.18;97614.75;1789648;80;21011;-74
2021/01/17 01:06:56;;;;;;;22.00;10.80;;;;;;;-4.62;78.30;97618.72;1789463;79;21138;-74
2021/01/17 01:09:23;;;;;;;23.15;10.63;;;;;;;-4.61;78.15;97616.41;1783409;80;21401;-74
2021/01/17 01:11:49;;;;;;;20.37;10.03;;;;;;;-4.61;78.42;97619.88;1783479;79;21102;-74
2021/01/17 01:14:15;;;;;;;18.55;10.05;;;;;;;-4.58;78.58;97626.09;1783434;80;21508;-74
2021/01/17 01:16:50;;;;;;;22.70;10.15;;;;;;;-4.57;78.74;97615.81;1783593;80;21158;-75
2021/01/17 01:19:17;;;;;;;26.02;14.35;;;;;;;-4.56;78.66;97612.67;1783472;80;21190;-74
2021/01/17 01:21:43;;;;;;;19.02;10.35;;;;;;;-4.57;78.57;97613.17;1783439;80;21154;-75
2021/01/17 01:24:10;;;;;;;28.92;13.10;;;;;;;-4.56;78.50;97612.16;1783410;80;21035;-74
2021/01/17 01:26:39;;;;;;;40.73;20.40;;;;;;;-4.59;78.93;97613.06;1783435;80;21495;-74
2021/01/17 01:29:05;;;;;;;46.45;24.90;;;;;;;-4.59;79.04;97612.56;1783661;80;21463;-74
2021/01/17 01:31:31;;;;;;;28.23;15.53;;;;;;;-4.55;79.00;97607.17;1783459;80;21199;-74
2021/01/17 01:33:58;;;;;;;34.30;18.75;;;;;;;-4.55;79.10;97597.11;1783383;80;21540;-74
2021/01/17 01:36:29;;;;;;;28.62;15.55;;;;;;;-4.55;79.07;97602.39;1783562;80;21098;-75
2021/01/17 01:38:56;;;;;;;21.25;11.22;;;;;;;-4.59;79.05;97600.66;1783453;80;21484;-74
2021/01/17 01:41:31;;;;;;;30.23;15.13;;;;;;;-4.62;79.24;97589.63;1783565;80;21113;-74
2021/01/17 01:43:57;;;;;;;38.15;14.95;;;;;;;-4.64;79.42;97594.30;1783429;80;21194;-74
2021/01/17 01:46:25;;;;;;;26.87;11.93;;;;;;;-4.61;79.07;97600.05;1783473;80;21170;-74
2021/01/17 01:48:53;;;;;;;24.85;10.05;;;;;;;-4.59;79.36;97597.20;1783490;80;21044;-74
2021/01/17 01:51:22;;;;;;;15.60;8.13;;;;;;;-4.56;79.05;97602.09;1753812;80;21099;-74
2021/01/17 01:53:52;;;;;;;11.95;6.90;;;;;;;-4.55;79.23;97612.47;1783538;80;26713;-74
2021/01/17 01:56:18;;;;;;;19.40;8.68;;;;;;;-4.55;79.22;97612.47;1782794;80;21186;-74
2021/01/17 01:58:44;;;;;;;25.08;13.03;;;;;;;-4.53;79.12;97622.84;1783344;80;21114;-74
2021/01/17 02:01:10;;;;;;;17.02;9.55;;;;;;;-4.54;80.53;97647.16;1783443;80;21134;-75
2021/01/17 02:03:37;;;;;;;14.25;9.65;;;;;;;-4.86;84.53;97657.00;1783395;80;21142;-75
2021/01/17 02:06:11;;;;;;;12.98;8.03;;;;;;;-5.11;85.12;97660.53;1783468;80;21158;-75
2021/01/17 02:09:10;;;;;;;14.85;6.65;;;;;;;-5.34;83.27;97674.42;1790162;78;21197;-74
2021/01/17 02:12:11;;;;;;;17.37;7.05;;;;;;;-5.59;83.57;97669.97;1795234;80;21134;-74
2021/01/17 02:14:45;;;;;;;27.55;12.70;;;;;;;-5.81;84.12;97675.22;1795391;80;21487;-74
2021/01/17 02:17:20;;;;;;;50.33;23.92;;;;;;;-5.93;87.67;97682.48;1795331;80;21129;-74
2021/01/17 02:20:11;;;;;;;16.87;8.65;;;;;;;-5.97;86.77;97689.96;1795469;80;21082;-74
2021/01/17 02:23:04;;;;;;;17.07;9.35;;;;;;;-5.99;85.46;97697.22;1795367;80;21292;-74
2021/01/17 02:25:35;;;;;;;11.53;7.10;;;;;;;-6.09;84.38;97688.77;1795333;80;21079;-74
2021/01/17 02:28:08;;;;;;;13.93;5.92;;;;;;;-6.06;85.04;97691.06;1794642;80;21055;-75
2021/01/17 02:30:37;;;;;;;26.55;12.33;;;;;;;-6.19;82.92;97694.81;1795030;80;21101;-74
2021/01/17 02:33:14;;;;;;;27.35;13.18;;;;;;;-6.10;84.61;97687.13;1742619;80;21098;-74
2021/01/17 02:35:40;;;;;;;11.60;6.20;;;;;;;-6.13;83.91;97687.51;1768510;80;23312;-75
2021/01/17 02:38:21;;;;;;;32.23;23.65;;;;;;;-6.17;83.20;97683.08;1795419;80;21114;-75
2021/01/17 02:41:21;;;;;;;13.70;7.20;;;;;;;-6.17;84.04;97690.99;1794484;80;21098;-75
2021/01/17 02:43:48;;;;;;;18.40;6.72;;;;;;;-6.12;84.21;97690.45;1795470;80;21094;-74
2021/01/17 02:46:14;;;;;;;17.17;7.70;;;;;;;-6.05;84.76;97692.19;1795543;80;21150;-74
2021/01/17 02:48:40;;;;;;;14.25;7.50;;;;;;;-5.99;84.60;97694.58;1795602;80;22028;-74
2021/01/17 02:51:06;;;;;;;12.75;5.70;;;;;;;-5.99;83.69;97693.27;1795634;80;21114;-73
2021/01/17 02:53:41;;;;;;;12.88;6.58;;;;;;;-5.98;84.03;97690.97;1795498;80;21126;-74
2021/01/17 02:56:09;;;;;;;8.60;4.87;;;;;;;-5.94;83.71;97700.14;1795591;80;21126;-75
2021/01/17 02:58:35;;;;;;;9.98;6.22;;;;;;;-6.21;81.46;97707.37;1795667;80;21078;-75
2021/01/17 03:01:01;;;;;;;9.53;5.10;;;;;;;-6.43;81.05;97716.48;1795565;80;21186;-75
2021/01/17 03:03:37;;;;;;;13.30;5.65;;;;;;;-6.62;82.02;97721.77;1795478;80;21084;-75
2021/01/17 03:06:07;;;;;;;12.10;5.58;;;;;;;-6.81;83.37;97719.63;1795636;80;21086;-75
2021/01/17 03:08:35;;;;;;;16.67;6.45;;;;;;;-6.91;83.22;97724.33;1790311;79;21134;-75
2021/01/17 03:11:01;;;;;;;17.13;8.53;;;;;;;-6.89;83.99;97723.64;1783945;80;21102;-75
2021/01/17 03:13:27;;;;;;;30.45;9.58;;;;;;;-7.01;82.28;97720.58;1783526;79;21145;-75
2021/01/17 03:15:53;;;;;;;11.60;5.75;;;;;;;-6.99;82.69;97729.15;1783639;80;21170;-74
2021/01/17 03:18:19;;;;;;;30.92;9.80;;;;;;;-6.99;81.85;97736.23;1783522;80;21123;-75
2021/01/17 03:20:46;;;;;;;17.25;7.85;;;;;;;-7.02;81.90;97728.16;1783681;80;21111;-74
2021/01/17 03:23:12;;;;;;;16.70;5.95;;;;;;;-7.07;80.24;97730.52;1783645;80;21016;-75
2021/01/17 03:25:38;;;;;;;17.17;7.20;;;;;;;-7.00;80.49;97728.83;1783546;79;21555;-75
2021/01/17 03:28:04;;;;;;;14.65;5.65;;;;;;;-6.91;80.37;97732.23;1783470;79;21189;-75
2021/01/17 03:30:31;;;;;;;20.65;8.63;;;;;;;-6.77;81.51;97731.44;1783560;80;21524;-75
2021/01/17 03:32:57;;;;;;;13.43;7.70;;;;;;;-6.74;81.23;97732.92;1783529;80;21103;-75
2021/01/17 03:35:23;;;;;;;11.03;6.85;;;;;;;-6.65;81.40;97736.63;1783702;79;21569;-75
2021/01/17 03:37:50;;;;;;;14.38;7.20;;;;;;;-6.68;80.40;97737.46;1783616;79;21199;-75
2021/01/17 03:40:16;;;;;;;19.20;7.95;;;;;;;-6.57;81.28;97735.74;1783542;80;21115;-75
2021/01/17 03:42:42;;;;;;;15.18;7.33;;;;;;;-6.46;82.52;97730.53;1783539;80;21039;-75
2021/01/17 03:45:09;;;;;;;55.12;21.37;;;;;;;-6.41;81.64;97735.59;1783560;79;21126;-75
2021/01/17 03:47:35;;;;;;;22.80;10.25;;;;;;;-6.45;80.43;97736.94;1783618;80;21115;-75
2021/01/17 03:50:01;;;;;;;22.70;10.65;;;;;;;-6.50;79.32;97749.00;1783606;80;21198;-75
2021/01/17 03:52:28;;;;;;;13.88;7.65;;;;;;;-6.58;77.35;97744.15;1783503;80;21516;-75
2021/01/17 03:54:54;;;;;;;10.80;5.85;;;;;;;-6.50;79.73;97741.09;1783527;80;21114;-75
2021/01/17 03:57:20;;;;;;;13.95;6.83;;;;;;;-6.48;79.56;97742.58;1783491;79;21119;-75
2021/01/17 03:59:46;;;;;;;14.53;6.65;;;;;;;-6.52;78.27;97744.41;1783554;80;21076;-75
2021/01/17 04:02:13;;;;;;;14.07;6.17;;;;;;;-6.52;76.30;97754.96;1783554;80;21191;-75
2021/01/17 04:04:39;;;;;;;10.03;5.65;;;;;;;-6.48;77.41;97757.08;1783477;80;21035;-75
2021/01/17 04:07:05;;;;;;;30.80;13.08;;;;;;;-6.71;74.06;97753.64;1783619;80;21106;-75
2021/01/17 04:09:31;;;;;;;12.30;6.10;;;;;;;-6.60;77.49;97752.70;1793744;79;21047;-75
2021/01/17 04:11:57;;;;;;;12.53;5.40;;;;;;;-6.71;74.74;97749.69;1798093;79;21118;-75
2021/01/17 04:14:24;;;;;;;14.50;7.00;;;;;;;-6.70;73.92;97753.45;1798032;79;21942;-75
2021/01/17 04:16:51;;;;;;;14.15;5.42;;;;;;;-6.86;74.38;97745.17;1798073;79;21122;-75
2021/01/17 04:19:17;;;;;;;12.25;5.42;;;;;;;-6.84;74.36;97748.95;1798073;79;21130;-75
2021/01/17 04:21:43;;;;;;;15.40;5.95;;;;;;;-6.90;74.79;97746.53;1754828;80;21166;-75
2021/01/17 04:24:10;;;;;;;12.75;6.00;;;;;;;-6.83;75.84;97737.44;1779078;80;21027;-75
2021/01/17 04:26:36;;;;;;;17.35;8.28;;;;;;;-6.87;75.48;97740.08;1779083;80;21248;-75
2021/01/17 04:29:03;;;;;;;16.65;8.58;;;;;;;-6.96;74.33;97751.18;1779013;80;21083;-75
2021/01/17 04:31:43;;;;;;;12.53;6.17;;;;;;;-6.91;75.11;97757.25;1779169;80;21102;-75
2021/01/17 04:34:10;;;;;;;19.05;8.13;;;;;;;-6.96;75.11;97759.09;1779189;80;21401;-75
2021/01/17 04:36:37;;;;;;;16.23;8.38;;;;;;;-7.08;74.66;97764.95;1779208;80;21079;-74
2021/01/17 04:39:04;;;;;;;14.33;6.90;;;;;;;-7.17;74.70;97766.81;1779136;80;22087;-75
2021/01/17 04:41:31;;;;;;;19.60;8.13;;;;;;;-7.29;74.39;97767.67;1779026;80;21091;-75
2021/01/17 04:43:58;;;;;;;15.80;5.20;;;;;;;-7.44;74.17;97769.39;1779096;80;21504;-75
2021/01/17 04:46:26;;;;;;;38.98;17.95;;;;;;;-7.59;74.18;97773.77;1760629;81;21092;-75
2021/01/17 04:48:58;;;;;;;42.70;22.93;;;;;;;-7.54;75.03;97779.31;1779156;80;21071;-75
2021/01/17 04:51:27;;;;;;;15.58;7.50;;;;;;;-7.63;74.72;97773.77;1760571;81;21206;-75
2021/01/17 04:53:53;;;;;;;;;;;;;;;-7.73;74.80;97783.18;1781584;80;21135;-75
2021/01/17 04:56:26;;;;;;;18.98;8.90;;;;;;;-7.69;74.96;97789.27;1779188;80;20294;-75
2021/01/17 04:59:12;;;;;;;16.12;6.97;;;;;;;-7.72;75.05;97786.95;1779025;80;21087;-76
2021/01/17 05:01:49;;;;;;;10.43;6.53;;;;;;;-7.82;74.87;97798.67;1779195;80;21472;-75
2021/01/17 05:04:24;;;;;;;24.02;10.40;;;;;;;-7.92;75.20;97798.05;1779127;80;22092;-74
2021/01/17 05:06:57;;;;;;;18.80;8.05;;;;;;;-8.06;75.40;97803.48;1778445;80;21107;-74
2021/01/17 05:09:31;;;;;;;18.05;9.33;;;;;;;-8.01;75.62;97810.39;1777470;78;21130;-74
2021/01/17 05:12:12;;;;;;;12.63;7.58;;;;;;;-8.03;75.79;97809.72;1776173;80;21106;-75
2021/01/17 05:14:43;;;;;;;16.65;7.97;;;;;;;-8.07;75.91;97813.68;1776291;80;21067;-75
2021/01/17 05:17:10;;;;;;;12.33;7.45;;;;;;;-8.19;75.96;97812.40;1776478;80;21182;-75
2021/01/17 05:19:38;;;;;;;13.25;5.50;;;;;;;-8.34;76.22;97815.69;1776281;80;21466;-75
2021/01/17 05:22:05;;;;;;;12.90;6.17;;;;;;;-8.32;76.51;97816.33;1776465;80;21546;-75
2021/01/17 05:24:32;;;;;;;13.05;6.83;;;;;;;-8.33;76.67;97821.77;1776328;80;21031;-75
2021/01/17 05:27:00;;;;;;;18.98;7.60;;;;;;;-8.40;77.05;97826.06;1776294;80;21523;-75
2021/01/17 05:29:28;;;;;;;14.43;7.33;;;;;;;-8.43;77.36;97826.41;1776356;80;21187;-75
2021/01/17 05:32:00;;;;;;;17.17;7.22;;;;;;;-8.43;77.33;97822.46;1776400;80;21087;-75
2021/01/17 05:34:27;;;;;;;14.87;7.25;;;;;;;-8.46;77.67;97829.34;1776258;80;21123;-73
2021/01/17 05:37:08;;;;;;;15.48;6.95;;;;;;;-8.43;78.02;97839.05;1752180;80;21142;-74
2021/01/17 05:40:05;;;;;;;20.00;8.18;;;;;;;-8.42;77.93;97836.75;1776366;80;21099;-75
2021/01/17 05:42:34;;;;;;;89.67;35.07;;;;;;;-8.42;78.18;97843.31;1776546;80;21191;-74
2021/01/17 05:45:20;;;;;;;35.70;15.05;;;;;;;-8.36;77.91;97849.23;1752046;80;21051;-74
2021/01/17 05:47:58;;;;;;;57.60;22.85;;;;;;;-8.37;76.60;97855.98;1775477;80;21058;-74
2021/01/17 05:50:26;;;;;;;24.80;10.23;;;;;;;-8.43;76.82;97861.88;1776263;80;21507;-74
2021/01/17 05:53:00;;;;;;;16.37;7.25;;;;;;;-8.54;75.94;97863.03;1776565;80;21032;-74
2021/01/17 05:55:43;;;;;;;19.62;8.30;;;;;;;-8.49;75.94;97861.22;1776297;80;21138;-74
2021/01/17 05:58:33;;;;;;;16.07;6.75;;;;;;;-8.40;76.13;97866.80;1776231;80;21024;-74
2021/01/17 06:01:02;;;;;;;28.10;17.20;;;;;;;-8.44;75.42;97875.52;1776322;80;21071;-75
2021/01/17 06:03:32;;;;;;;15.70;8.53;;;;;;;-8.45;75.11;97875.69;1768689;80;21020;-74
2021/01/17 06:06:05;;;;;;;20.02;12.43;;;;;;;-8.43;75.30;97871.91;1776299;80;21072;-75
2021/01/17 06:08:32;;;;;;;18.50;11.38;;;;;;;-8.54;74.53;97874.36;1776423;80;21184;-75
2021/01/17 06:11:09;;;;;;;12.50;6.55;;;;;;;-8.60;74.34;97879.44;1783397;80;21122;-76
2021/01/17 06:13:38;;;;;;;9.50;5.10;;;;;;;-8.49;75.29;97887.50;1783464;80;21091;-74
2021/01/17 06:16:25;;;;;;;13.62;5.42;;;;;;;-8.45;75.56;97896.22;1782889;80;21139;-75
2021/01/17 06:18:54;;;;;;;20.55;11.15;;;;;;;-8.46;75.77;97890.61;1783426;80;21019;-74
2021/01/17 06:21:21;;;;;;;;;;;;;;;-8.43;76.04;97897.37;1786239;80;21240;-74
2021/01/17 06:24:06;;;;;;;6.78;3.77;;;;;;;-8.32;76.02;97896.52;1783554;80;20215;-74
2021/01/17 06:26:37;;;;;;;23.12;14.85;;;;;;;-8.32;75.86;97899.14;1757972;80;21070;-74
2021/01/17 06:29:07;;;;;;;18.42;9.75;;;;;;;-8.39;75.79;97906.55;1783526;80;21186;-74
2021/01/17 06:31:33;;;;;;;28.55;15.00;;;;;;;-8.45;75.77;97904.59;1783634;80;21801;-74
2021/01/17 06:34:12;;;;;;;24.45;15.25;;;;;;;-8.46;75.90;97910.81;1783551;80;21192;-74
2021/01/17 06:36:43;;;;;;;23.10;12.23;;;;;;;-8.50;75.78;97907.70;1783729;80;21091;-75
2021/01/17 06:39:21;;;;;;;17.82;10.98;;;;;;;-8.50;75.58;97909.02;1783657;80;21036;-75
2021/01/17 06:41:53;;;;;;;19.67;14.38;;;;;;;-8.49;74.98;97921.16;1783612;80;21082;-74
2021/01/17 06:44:18;;;;;;;21.90;13.25;;;;;;;-8.54;74.27;97922.98;1783424;80;21390;-75
2021/01/17 06:46:46;;;;;;;209.30;124.75;;;;;;;-8.46;75.33;97922.64;1783567;80;21266;-75
2021/01/17 06:49:26;;;;;;;44.60;29.02;;;;;;;-8.51;74.72;97927.58;1783627;80;21031;-75
2021/01/17 06:51:53;;;;;;;59.85;35.83;;;;;;;-8.50;73.77;97934.47;1783620;80;21091;-74
2021/01/17 06:54:38;;;;;;;12.70;7.17;;;;;;;-8.48;74.34;97937.26;1783633;80;21039;-74
2021/01/17 06:57:04;;;;;;;13.68;7.12;;;;;;;-8.40;75.18;97939.09;1783644;80;21138;-74
2021/01/17 06:59:36;;;;;;;16.02;9.68;;;;;;;-8.32;75.04;97939.89;1783500;80;21249;-74
2021/01/17 07:02:31;;;;;;;21.77;9.88;;;;;;;-8.28;74.25;97941.22;1783673;80;21078;-74
2021/01/17 07:05:15;;;;;;;81.82;33.15;;;;;;;-8.28;73.86;97945.16;1782666;80;21477;-74
2021/01/17 07:08:06;;;;;;;35.50;16.93;;;;;;;-8.21;74.18;97953.20;1783549;80;21579;-75
2021/01/17 07:10:40;;;;;;;18.12;8.48;;;;;;;-8.17;74.57;97953.72;1783529;80;21004;-74
2021/01/17 07:13:11;;;;;;;15.38;8.05;;;;;;;-8.16;74.80;97955.36;1783604;80;21485;-74
2021/01/17 07:15:39;;;;;;;17.27;9.78;;;;;;;-8.13;74.44;97957.65;1755182;80;21111;-74
2021/01/17 07:18:12;;;;;;;22.58;10.23;;;;;;;-8.07;74.63;97966.21;1783681;80;21532;-74
2021/01/17 07:20:43;;;;;;;41.68;17.65;;;;;;;-8.06;73.46;97970.48;1755319;80;21102;-74
2021/01/17 07:23:11;;;;;;;26.73;13.38;;;;;;;-8.03;74.39;97969.68;1783352;80;21028;-74
2021/01/17 07:25:40;;;;;;;25.05;14.28;;;;;;;-7.90;74.65;97974.94;1783689;80;21392;-74
2021/01/17 07:28:18;;;;;;;21.52;9.38;;;;;;;-7.98;72.24;97980.52;1783620;80;21475;-74
2021/01/17 07:31:05;;;;;;;25.47;12.10;;;;;;;-8.15;71.99;97979.34;1783859;80;21087;-74
2021/01/17 07:33:36;;;;;;;39.18;17.37;;;;;;;-8.15;72.31;97993.31;1783361;80;21052;-74
2021/01/17 07:36:06;;;;;;;44.53;17.17;;;;;;;-8.17;71.71;97993.98;1783582;80;21512;-75
2021/01/17 07:38:37;;;;;;;47.17;22.55;;;;;;;-8.27;70.94;97988.87;1783585;80;23565;-75
2021/01/17 07:41:08;;;;;;;31.50;14.93;;;;;;;-8.12;72.39;97990.35;1783591;80;21530;-73
2021/01/17 07:43:42;;;;;;;43.13;17.80;;;;;;;-8.18;71.93;97982.31;1783636;80;21119;-74
2021/01/17 07:46:15;;;;;;;46.53;17.82;;;;;;;-8.17;71.40;97995.30;1783666;80;21079;-74
2021/01/17 07:48:43;;;;;;;36.73;15.60;;;;;;;-8.00;73.04;97998.77;1783578;80;21424;-75
2021/01/17 07:51:12;;;;;;;28.23;13.03;;;;;;;-8.06;71.90;98000.23;1783638;80;21236;-75
2021/01/17 07:53:50;;;;;;;24.23;11.22;;;;;;;-8.06;72.18;97998.09;1783643;80;26677;-75
2021/01/17 07:56:28;;;;;;;21.83;9.07;;;;;;;-7.89;73.27;98001.06;1783901;80;21075;-75
2021/01/17 07:59:03;;;;;;;44.35;24.57;;;;;;;-7.81;73.36;98002.39;1783665;80;21771;-74
2021/01/17 08:01:39;;;;;;;99.75;46.68;;;;;;;-7.96;70.41;98000.07;1782595;80;21091;-74
2021/01/17 08:04:12;;;;;;;28.77;15.25;;;;;;;-8.07;69.64;98005.16;1783528;80;22079;-75
2021/01/17 08:06:45;;;;;;;24.60;10.50;;;;;;;-8.14;69.83;98008.59;1783473;80;21111;-74
2021/01/17 08:09:14;;;;;;;19.45;10.95;;;;;;;-8.17;70.11;98022.08;1783422;80;21039;-75
2021/01/17 08:11:56;;;;;;;24.92;9.95;;;;;;;-8.10;70.98;98023.91;1783439;80;21687;-75
2021/01/17 08:14:34;;;;;;;59.45;28.70;;;;;;;-8.07;71.00;98018.31;1783627;80;21020;-75
2021/01/17 08:17:12;;;;;;;19.12;9.08;;;;;;;-8.09;69.90;98015.03;1783735;80;21194;-73
2021/01/17 08:19:56;;;;;;;22.52;10.40;;;;;;;-8.12;69.96;98018.45;1783444;80;21464;-74
2021/01/17 08:22:28;;;;;;;18.92;10.95;;;;;;;-8.01;69.65;98022.11;1783482;80;21075;-74
2021/01/17 08:24:58;;;;;;;21.87;10.60;;;;;;;-8.06;69.33;98019.13;1783605;80;21495;-74
2021/01/17 08:27:35;;;;;;;29.75;12.53;;;;;;;-7.79;70.69;98020.14;1783487;80;21102;-75
2021/01/17 08:30:17;;;;;;;51.35;19.48;;;;;;;-7.74;68.90;98025.75;1783641;80;21134;-74
2021/01/17 08:32:52;;;;;;;34.23;14.50;;;;;;;-7.81;68.58;98029.20;1783535;80;21453;-74
2021/01/17 08:35:24;;;;;;;31.07;15.03;;;;;;;-7.92;68.50;98029.52;1783532;80;21146;-75
2021/01/17 08:37:56;;;;;;;28.73;13.55;;;;;;;-7.97;69.26;98037.39;1783618;80;21400;-74
2021/01/17 08:40:34;;;;;;;53.25;22.13;;;;;;;-7.72;69.14;98041.37;1783514;80;21091;-75
2021/01/17 08:43:07;;;;;;;28.65;15.35;;;;;;;-7.60;69.38;98037.45;1783604;80;21188;-74
2021/01/17 08:45:38;;;;;;;38.50;19.45;;;;;;;-7.44;69.46;98042.67;1783577;80;21123;-73
2021/01/17 08:48:20;;;;;;;24.75;13.13;;;;;;;-7.42;68.58;98043.86;1783542;80;21503;-74
2021/01/17 08:50:52;;;;;;;32.80;16.93;;;;;;;-7.95;68.92;98053.01;1783491;80;21102;-74
2021/01/17 08:53:30;;;;;;;31.82;19.57;;;;;;;-8.14;69.85;98056.75;1783529;80;21087;-75
2021/01/17 08:56:14;;;;;;;35.52;18.27;;;;;;;-7.97;69.65;98057.61;1783514;80;21228;-74
2021/01/17 08:58:45;;;;;;;43.42;25.32;;;;;;;-7.93;68.97;98065.53;1783491;80;21084;-74
2021/01/17 09:01:13;;;;;;;25.15;13.53;;;;;;;-7.78;69.09;98070.45;1783484;80;21043;-74
2021/01/17 09:03:49;;;;;;;29.92;14.53;;;;;;;-7.79;68.39;98078.03;1783559;80;21083;-74
2021/01/17 09:06:21;;;;;;;24.15;12.63;;;;;;;-7.60;69.66;98074.29;1783525;80;21080;-75
2021/01/17 09:08:57;;;;;;;23.95;12.47;;;;;;;-7.73;67.91;98072.63;1783576;80;21282;-75
2021/01/17 09:11:37;;;;;;;28.67;15.00;;;;;;;-7.58;68.95;98078.07;1783311;80;21138;-75
2021/01/17 09:14:24;;;;;;;32.58;20.52;;;;;;;-7.62;68.51;98086.77;1783572;80;21548;-74
2021/01/17 09:17:01;;;;;;;31.30;13.93;;;;;;;-7.41;69.48;98087.13;1783463;80;21056;-74
2021/01/17 09:19:32;;;;;;;28.02;12.20;;;;;;;-7.32;69.34;98095.84;1755373;80;21100;-74
2021/01/17 09:22:04;;;;;;;22.73;11.43;;;;;;;-7.21;69.52;98098.14;1783517;80;21487;-75
2021/01/17 09:24:35;;;;;;;25.70;13.13;;;;;;;-7.09;69.62;98098.64;1783512;80;21032;-75
2021/01/17 09:27:04;;;;;;;22.65;10.45;;;;;;;-7.01;68.29;98103.05;1783507;80;21071;-75
2021/01/17 09:29:34;;;;;;;43.38;20.37;;;;;;;-6.90;68.80;98101.41;1783565;80;24025;-75
2021/01/17 09:32:11;;;;;;;78.17;34.67;;;;;;;-6.86;69.31;98105.34;1783564;80;21459;-75
2021/01/17 09:34:41;;;;;;;85.75;39.08;;;;;;;-7.20;66.68;98110.81;1783445;80;21187;-74
2021/01/17 09:37:13;;;;;;;45.60;22.15;;;;;;;-7.50;66.72;98110.98;1783577;80;21499;-75
2021/01/17 09:39:42;;;;;;;40.17;22.35;;;;;;;-7.70;67.72;98117.02;1783416;80;21079;-75
2021/01/17 09:42:10;;;;;;;28.75;13.72;;;;;;;-7.68;68.83;98120.34;1755588;80;21071;-74
2021/01/17 09:44:36;;;;;;;47.93;27.13;;;;;;;-7.54;68.20;98123.63;1783704;80;21063;-74
2021/01/17 09:47:03;;;;;;;41.98;21.60;;;;;;;-7.41;68.59;98117.40;1783482;80;22104;-74
2021/01/17 09:49:31;;;;;;;30.23;15.70;;;;;;;-7.58;68.29;98118.37;1783376;80;21028;-75
2021/01/17 09:51:57;;;;;;;29.30;17.25;;;;;;;-7.28;68.59;98122.16;1783528;80;21114;-74
2021/01/17 09:54:23;;;;;;;34.83;17.77;;;;;;;-6.97;68.88;98121.51;1783428;80;21144;-74
2021/01/17 09:56:50;;;;;;;38.75;20.70;;;;;;;-6.77;69.01;98121.47;1783567;80;21011;-74
2021/01/17 09:59:19;;;;;;;40.10;20.92;;;;;;;-6.66;68.45;98124.27;1783454;80;21193;-75
2021/01/17 10:01:46;;;;;;;36.00;18.75;;;;;;;-6.50;68.37;98119.43;1783379;80;21563;-74
2021/01/17 10:04:21;;;;;;;40.98;21.05;;;;;;;-6.61;65.61;98124.08;1783522;80;21043;-75
2021/01/17 10:06:50;;;;;;;32.70;17.12;;;;;;;-6.40;68.11;98127.50;1783101;80;38609;-74
2021/01/17 10:09:20;;;;;;;39.40;22.00;;;;;;;-6.27;67.63;98129.09;1783597;80;21083;-74
2021/01/17 10:12:01;;;;;;;36.40;18.30;;;;;;;-6.58;64.60;98130.81;1777315;79;21975;-74
2021/01/17 10:14:31;;;;;;;37.03;17.35;;;;;;;-6.38;66.67;98132.59;1776279;80;21080;-74
2021/01/17 10:17:02;;;;;;;31.50;15.03;;;;;;;-6.23;66.23;98132.72;1776179;80;21420;-74
2021/01/17 10:19:33;;;;;;;28.45;13.83;;;;;;;-6.06;65.50;98141.72;1776136;80;21047;-75
2021/01/17 10:22:01;;;;;;;25.62;13.53;;;;;;;-5.96;66.63;98140.19;1776320;80;21405;-73
2021/01/17 10:24:30;;;;;;;26.90;12.93;;;;;;;-6.02;65.12;98145.64;1776332;80;21187;-74
2021/01/17 10:26:59;;;;;;;29.32;12.13;;;;;;;-5.70;67.17;98146.45;1776309;80;21120;-74
2021/01/17 10:29:33;;;;;;;31.95;16.17;;;;;;;-5.50;67.12;98146.33;1775716;80;21523;-75
2021/01/17 10:32:03;;;;;;;34.08;15.38;;;;;;;-5.52;67.00;98147.01;1776349;80;21079;-74
2021/01/17 10:34:42;;;;;;;26.60;12.37;;;;;;;-5.57;67.41;98150.66;1776282;80;21035;-74
2021/01/17 10:37:14;;;;;;;44.58;18.67;;;;;;;-5.41;67.05;98147.10;1776401;80;21175;-74
2021/01/17 10:39:41;;;;;;;49.27;24.12;;;;;;;-5.35;66.71;98143.77;1776312;80;21103;-75
2021/01/17 10:42:22;;;;;;;34.73;18.82;;;;;;;-5.37;64.20;98145.77;1776269;80;21495;-75
2021/01/17 10:44:55;;;;;;;53.50;32.63;;;;;;;-5.55;63.25;98147.88;1775882;80;21086;-74
2021/01/17 10:47:46;;;;;;;43.00;22.40;;;;;;;-5.97;62.30;98145.97;1776287;80;21028;-75
2021/01/17 10:50:19;;;;;;;45.50;25.25;;;;;;;-5.89;63.56;98155.64;1776323;80;21436;-74
2021/01/17 10:53:21;;;;;;;55.25;31.02;;;;;;;-6.50;63.68;98164.25;1776289;80;21456;-74
2021/01/17 10:55:52;;;;;;;26.10;15.85;;;;;;;-6.47;64.23;98158.17;1776352;80;21521;-74
2021/01/17 10:58:30;;;;;;;39.15;22.35;;;;;;;-6.36;65.70;98155.66;1776236;80;21513;-74
2021/01/17 11:00:58;;;;;;;76.42;36.42;;;;;;;-6.32;65.29;98151.20;1776409;80;21470;-74
2021/01/17 11:03:31;;;;;;;132.87;55.60;;;;;;;-6.44;64.50;98142.00;1776318;80;21256;-74
2021/01/17 11:06:11;;;;;;;36.77;17.32;;;;;;;-6.22;65.09;98145.73;1776238;80;21413;-75
2021/01/17 11:08:53;;;;;;;87.47;47.67;;;;;;;-6.06;65.12;98148.81;1776448;80;21123;-74
2021/01/17 11:11:20;;;;;;;33.78;18.37;;;;;;;-6.08;64.32;98147.64;1776436;80;21040;-75
2021/01/17 11:14:00;;;;;;;36.23;18.45;;;;;;;-5.98;64.79;98152.23;1776492;80;21492;-75
2021/01/17 11:16:36;;;;;;;40.85;18.07;;;;;;;-5.76;65.90;98159.84;1776517;80;21195;-75
2021/01/17 11:19:04;;;;;;;42.48;16.60;;;;;;;-5.70;65.45;98156.52;1775674;80;21035;-74
2021/01/17 11:21:31;;;;;;;37.30;15.83;;;;;;;-5.64;64.34;98158.95;1776722;80;21024;-74
2021/01/17 11:23:57;;;;;;;28.90;14.15;;;;;;;-5.54;63.43;98160.89;1776401;80;21510;-74
2021/01/17 11:26:24;;;;;;;34.83;15.65;;;;;;;-5.72;60.50;98161.16;1776497;80;21123;-74
2021/01/17 11:28:54;;;;;;;39.58;18.77;;;;;;;-5.47;62.90;98163.63;1776358;80;21084;-75
2021/01/17 11:31:21;;;;;;;33.58;18.75;;;;;;;-5.42;61.27;98160.80;1776400;80;21492;-75
2021/01/17 11:33:48;;;;;;;29.42;16.60;;;;;;;-5.54;61.01;98160.89;1776411;80;21079;-75
2021/01/17 11:36:23;;;;;;;27.55;13.35;;;;;;;-5.52;61.36;98158.89;1776392;80;21550;-75
2021/01/17 11:38:57;;;;;;;27.87;13.48;;;;;;;-5.50;61.99;98163.50;1776402;80;21051;-74
2021/01/17 11:41:37;;;;;;;35.95;14.83;;;;;;;-5.37;63.76;98160.30;1776380;80;22040;-74